Terminal Aerodrome Forecast
Issued by NWS Mobile, AL

Home | Current Version | Previous Version | Text Only | Print | Product List | Glossary On
Versions: 1 2 3 4 5 6 7 8 9 10 11 12 13 14
000
FTUS44 KMOB 041743
TAFPNS
TAF
KPNS 041743Z 0418/0518 15014KT 5SM TSRA BKN011CB BKN050 OVC100
     FM042000 18010KT P6SM VCSH SCT010 SCT025 OVC050
      TEMPO 0420/0424 3SM SHRA BKN025
     FM050000 30006KT P6SM VCSH SCT010 BKN020
     FM050600 35006KT 3SM BR VCSH OVC009
     FM051400 03006KT 3SM SHRA BKN009=

USA.gov is the U.S. government's official web portal to all federal, state and local government web resources and services.